sensor_id;sensor_type;location;lat;lon;timestamp;temperature;humidity
43151;DHT22;28755;51.478;5.702;2023-09-12T00:02:04;20.50;99.90
43151;DHT22;28755;51.478;5.702;2023-09-12T00:04:29;20.50;99.90
43151;DHT22;28755;51.478;5.702;2023-09-12T00:06:55;20.60;99.90
43151;DHT22;28755;51.478;5.702;2023-09-12T00:09:21;20.60;99.90
43151;DHT22;28755;51.478;5.702;2023-09-12T00:11:46;20.60;99.90
43151;DHT22;28755;51.478;5.702;2023-09-12T00:14:15;20.50;99.90
43151;DHT22;28755;51.478;5.702;2023-09-12T00:16:41;20.60;99.90
43151;DHT22;28755;51.478;5.702;2023-09-12T00:19:07;20.60;99.90
43151;DHT22;28755;51.478;5.702;2023-09-12T00:21:32;20.60;99.90
43151;DHT22;28755;51.478;5.702;2023-09-12T00:23:58;20.60;99.90
43151;DHT22;28755;51.478;5.702;2023-09-12T00:26:23;20.50;99.90
43151;DHT22;28755;51.478;5.702;2023-09-12T00:28:49;20.40;99.90
43151;DHT22;28755;51.478;5.702;2023-09-12T00:31:14;20.40;99.90
43151;DHT22;28755;51.478;5.702;2023-09-12T00:33:40;20.40;99.90
43151;DHT22;28755;51.478;5.702;2023-09-12T00:36:06;20.40;99.90
43151;DHT22;28755;51.478;5.702;2023-09-12T00:38:31;20.40;99.90
43151;DHT22;28755;51.478;5.702;2023-09-12T00:40:57;20.40;99.90
43151;DHT22;28755;51.478;5.702;2023-09-12T00:43:22;20.40;99.90
43151;DHT22;28755;51.478;5.702;2023-09-12T00:45:48;20.40;99.90
43151;DHT22;28755;51.478;5.702;2023-09-12T00:48:15;20.40;99.90
43151;DHT22;28755;51.478;5.702;2023-09-12T00:50:42;20.30;99.90
43151;DHT22;28755;51.478;5.702;2023-09-12T00:53:08;20.30;99.90
43151;DHT22;28755;51.478;5.702;2023-09-12T00:55:37;20.20;99.90
43151;DHT22;28755;51.478;5.702;2023-09-12T00:58:05;20.10;99.90
43151;DHT22;28755;51.478;5.702;2023-09-12T01:00:33;20.20;99.90
43151;DHT22;28755;51.478;5.702;2023-09-12T01:02:59;20.10;99.90
43151;DHT22;28755;51.478;5.702;2023-09-12T01:05:24;20.10;99.90
43151;DHT22;28755;51.478;5.702;2023-09-12T01:07:50;20.00;99.90
43151;DHT22;28755;51.478;5.702;2023-09-12T01:10:16;20.00;99.90
43151;DHT22;28755;51.478;5.702;2023-09-12T01:12:41;20.00;99.90
43151;DHT22;28755;51.478;5.702;2023-09-12T01:15:07;19.90;99.90
43151;DHT22;28755;51.478;5.702;2023-09-12T01:17:35;19.80;99.90
43151;DHT22;28755;51.478;5.702;2023-09-12T01:20:04;19.90;99.90
43151;DHT22;28755;51.478;5.702;2023-09-12T01:22:47;19.90;99.90
43151;DHT22;28755;51.478;5.702;2023-09-12T01:28:00;19.80;99.90
43151;DHT22;28755;51.478;5.702;2023-09-12T01:30:28;19.70;99.90
43151;DHT22;28755;51.478;5.702;2023-09-12T01:32:54;19.70;99.90
43151;DHT22;28755;51.478;5.702;2023-09-12T01:35:20;19.70;99.90
43151;DHT22;28755;51.478;5.702;2023-09-12T01:37:46;19.70;99.90
43151;DHT22;28755;51.478;5.702;2023-09-12T01:40:11;19.70;99.90
43151;DHT22;28755;51.478;5.702;2023-09-12T01:42:41;19.70;99.90
43151;DHT22;28755;51.478;5.702;2023-09-12T01:45:10;19.60;99.90
43151;DHT22;28755;51.478;5.702;2023-09-12T01:47:36;19.70;99.90
43151;DHT22;28755;51.478;5.702;2023-09-12T01:50:03;19.70;99.90
43151;DHT22;28755;51.478;5.702;2023-09-12T01:52:30;19.70;99.90
43151;DHT22;28755;51.478;5.702;2023-09-12T01:54:56;19.60;99.90
43151;DHT22;28755;51.478;5.702;2023-09-12T01:57:23;19.60;99.90
43151;DHT22;28755;51.478;5.702;2023-09-12T01:59:49;19.50;99.90
43151;DHT22;28755;51.478;5.702;2023-09-12T02:02:16;19.60;99.90
43151;DHT22;28755;51.478;5.702;2023-09-12T02:04:45;19.60;99.90
43151;DHT22;28755;51.478;5.702;2023-09-12T02:07:12;19.60;99.90
43151;DHT22;28755;51.478;5.702;2023-09-12T02:09:37;19.60;99.90
43151;DHT22;28755;51.478;5.702;2023-09-12T02:12:03;19.70;99.90
43151;DHT22;28755;51.478;5.702;2023-09-12T02:14:29;19.60;99.90
43151;DHT22;28755;51.478;5.702;2023-09-12T02:16:54;19.70;99.90
43151;DHT22;28755;51.478;5.702;2023-09-12T02:19:20;19.60;99.90
43151;DHT22;28755;51.478;5.702;2023-09-12T02:21:45;19.60;99.90
43151;DHT22;28755;51.478;5.702;2023-09-12T02:24:11;19.70;99.90
43151;DHT22;28755;51.478;5.702;2023-09-12T02:26:36;19.60;99.90
43151;DHT22;28755;51.478;5.702;2023-09-12T02:29:03;19.60;99.90
43151;DHT22;28755;51.478;5.702;2023-09-12T02:31:31;19.60;99.90
43151;DHT22;28755;51.478;5.702;2023-09-12T02:33:56;19.50;99.90
43151;DHT22;28755;51.478;5.702;2023-09-12T02:36:22;19.50;99.90
43151;DHT22;28755;51.478;5.702;2023-09-12T02:38:47;19.50;99.90
43151;DHT22;28755;51.478;5.702;2023-09-12T02:41:13;19.50;99.90
43151;DHT22;28755;51.478;5.702;2023-09-12T02:43:38;19.40;99.90
43151;DHT22;28755;51.478;5.702;2023-09-12T02:46:04;19.50;99.90
43151;DHT22;28755;51.478;5.702;2023-09-12T02:48:29;19.50;99.90
43151;DHT22;28755;51.478;5.702;2023-09-12T02:50:55;19.50;99.90
43151;DHT22;28755;51.478;5.702;2023-09-12T02:53:20;19.50;99.90
43151;DHT22;28755;51.478;5.702;2023-09-12T02:55:46;19.50;99.90
43151;DHT22;28755;51.478;5.702;2023-09-12T02:58:11;19.50;99.90
43151;DHT22;28755;51.478;5.702;2023-09-12T03:00:40;19.50;99.90
43151;DHT22;28755;51.478;5.702;2023-09-12T03:03:06;19.50;99.90
43151;DHT22;28755;51.478;5.702;2023-09-12T03:05:32;19.50;99.90
43151;DHT22;28755;51.478;5.702;2023-09-12T03:07:57;19.40;99.90
43151;DHT22;28755;51.478;5.702;2023-09-12T03:10:23;19.20;99.90
43151;DHT22;28755;51.478;5.702;2023-09-12T03:12:49;19.20;99.90
43151;DHT22;28755;51.478;5.702;2023-09-12T03:15:14;19.20;99.90
43151;DHT22;28755;51.478;5.702;2023-09-12T03:17:40;19.20;99.90
43151;DHT22;28755;51.478;5.702;2023-09-12T03:20:05;19.30;99.90
43151;DHT22;28755;51.478;5.702;2023-09-12T03:22:34;19.20;99.90
43151;DHT22;28755;51.478;5.702;2023-09-12T03:25:06;19.20;99.90
43151;DHT22;28755;51.478;5.702;2023-09-12T03:27:31;19.10;99.90
43151;DHT22;28755;51.478;5.702;2023-09-12T03:29:58;19.10;99.90
43151;DHT22;28755;51.478;5.702;2023-09-12T03:32:23;19.10;99.90
43151;DHT22;28755;51.478;5.702;2023-09-12T03:34:48;19.10;99.90
43151;DHT22;28755;51.478;5.702;2023-09-12T03:37:14;19.10;99.90
43151;DHT22;28755;51.478;5.702;2023-09-12T03:39:40;19.00;99.90
43151;DHT22;28755;51.478;5.702;2023-09-12T03:42:06;19.00;99.90
43151;DHT22;28755;51.478;5.702;2023-09-12T03:44:31;19.00;99.90
43151;DHT22;28755;51.478;5.702;2023-09-12T03:46:57;19.10;99.90
43151;DHT22;28755;51.478;5.702;2023-09-12T03:49:23;19.00;99.90
43151;DHT22;28755;51.478;5.702;2023-09-12T03:51:49;19.00;99.90
43151;DHT22;28755;51.478;5.702;2023-09-12T03:54:14;19.00;99.90
43151;DHT22;28755;51.478;5.702;2023-09-12T03:56:40;19.10;99.90
43151;DHT22;28755;51.478;5.702;2023-09-12T03:59:05;19.00;99.90
43151;DHT22;28755;51.478;5.702;2023-09-12T04:01:32;19.10;99.90
43151;DHT22;28755;51.478;5.702;2023-09-12T04:03:57;19.10;99.90
43151;DHT22;28755;51.478;5.702;2023-09-12T04:06:23;19.10;99.90
43151;DHT22;28755;51.478;5.702;2023-09-12T04:08:49;19.10;99.90
43151;DHT22;28755;51.478;5.702;2023-09-12T04:11:14;19.10;99.90
43151;DHT22;28755;51.478;5.702;2023-09-12T04:13:40;19.10;99.90
43151;DHT22;28755;51.478;5.702;2023-09-12T04:16:05;19.10;99.90
43151;DHT22;28755;51.478;5.702;2023-09-12T04:18:31;19.20;99.90
43151;DHT22;28755;51.478;5.702;2023-09-12T04:20:56;19.10;99.90
43151;DHT22;28755;51.478;5.702;2023-09-12T04:23:25;19.10;99.90
43151;DHT22;28755;51.478;5.702;2023-09-12T04:25:50;19.20;99.90
43151;DHT22;28755;51.478;5.702;2023-09-12T04:28:16;19.20;99.90
43151;DHT22;28755;51.478;5.702;2023-09-12T04:30:41;19.20;99.90
43151;DHT22;28755;51.478;5.702;2023-09-12T04:33:07;19.20;99.90
43151;DHT22;28755;51.478;5.702;2023-09-12T04:35:33;19.20;99.90
43151;DHT22;28755;51.478;5.702;2023-09-12T04:37:59;19.20;99.90
43151;DHT22;28755;51.478;5.702;2023-09-12T04:40:25;19.20;99.90
43151;DHT22;28755;51.478;5.702;2023-09-12T04:42:50;19.30;99.90
43151;DHT22;28755;51.478;5.702;2023-09-12T04:45:16;19.30;99.90
43151;DHT22;28755;51.478;5.702;2023-09-12T04:47:42;19.40;99.90
43151;DHT22;28755;51.478;5.702;2023-09-12T04:50:08;19.40;99.90
43151;DHT22;28755;51.478;5.702;2023-09-12T04:52:33;19.40;99.90
43151;DHT22;28755;51.478;5.702;2023-09-12T04:54:59;19.40;99.90
43151;DHT22;28755;51.478;5.702;2023-09-12T04:57:24;19.40;99.90
43151;DHT22;28755;51.478;5.702;2023-09-12T04:59:51;19.50;99.90
43151;DHT22;28755;51.478;5.702;2023-09-12T05:02:17;19.40;99.90
43151;DHT22;28755;51.478;5.702;2023-09-12T05:04:43;19.40;99.90
43151;DHT22;28755;51.478;5.702;2023-09-12T05:07:09;19.50;99.90
43151;DHT22;28755;51.478;5.702;2023-09-12T05:09:34;19.50;99.90
43151;DHT22;28755;51.478;5.702;2023-09-12T05:12:00;19.50;99.90
43151;DHT22;28755;51.478;5.702;2023-09-12T05:14:25;19.50;99.90
43151;DHT22;28755;51.478;5.702;2023-09-12T05:16:51;19.50;99.90
43151;DHT22;28755;51.478;5.702;2023-09-12T05:19:16;19.50;99.90
43151;DHT22;28755;51.478;5.702;2023-09-12T05:21:42;19.50;99.90
43151;DHT22;28755;51.478;5.702;2023-09-12T05:24:07;19.40;99.90
43151;DHT22;28755;51.478;5.702;2023-09-12T05:26:33;19.40;99.90
43151;DHT22;28755;51.478;5.702;2023-09-12T05:28:59;19.40;99.90
43151;DHT22;28755;51.478;5.702;2023-09-12T05:31:24;19.40;99.90
43151;DHT22;28755;51.478;5.702;2023-09-12T05:33:50;19.50;99.90
43151;DHT22;28755;51.478;5.702;2023-09-12T05:36:15;19.50;99.90
43151;DHT22;28755;51.478;5.702;2023-09-12T05:38:41;19.50;99.90
43151;DHT22;28755;51.478;5.702;2023-09-12T05:41:06;19.50;99.90
43151;DHT22;28755;51.478;5.702;2023-09-12T05:43:32;19.40;99.90
43151;DHT22;28755;51.478;5.702;2023-09-12T05:45:57;19.50;99.90
43151;DHT22;28755;51.478;5.702;2023-09-12T05:48:23;19.40;99.90
43151;DHT22;28755;51.478;5.702;2023-09-12T05:50:49;19.50;99.90
43151;DHT22;28755;51.478;5.702;2023-09-12T05:53:14;19.50;99.90
43151;DHT22;28755;51.478;5.702;2023-09-12T05:55:40;19.50;99.90
43151;DHT22;28755;51.478;5.702;2023-09-12T05:58:06;19.50;99.90
43151;DHT22;28755;51.478;5.702;2023-09-12T06:00:32;19.60;99.90
43151;DHT22;28755;51.478;5.702;2023-09-12T06:02:58;19.50;99.90
43151;DHT22;28755;51.478;5.702;2023-09-12T06:05:23;19.60;99.90
43151;DHT22;28755;51.478;5.702;2023-09-12T06:07:49;19.50;99.90
43151;DHT22;28755;51.478;5.702;2023-09-12T06:10:14;19.50;99.90
43151;DHT22;28755;51.478;5.702;2023-09-12T06:12:40;19.60;99.90
43151;DHT22;28755;51.478;5.702;2023-09-12T06:15:06;19.60;99.90
43151;DHT22;28755;51.478;5.702;2023-09-12T06:17:31;19.60;99.90
43151;DHT22;28755;51.478;5.702;2023-09-12T06:19:58;19.60;99.90
43151;DHT22;28755;51.478;5.702;2023-09-12T06:22:23;19.60;99.90
43151;DHT22;28755;51.478;5.702;2023-09-12T06:24:53;19.50;99.90
43151;DHT22;28755;51.478;5.702;2023-09-12T06:27:18;19.50;99.90
43151;DHT22;28755;51.478;5.702;2023-09-12T06:29:48;19.50;99.90
43151;DHT22;28755;51.478;5.702;2023-09-12T06:32:17;19.60;99.90
43151;DHT22;28755;51.478;5.702;2023-09-12T06:34:43;19.50;99.90
43151;DHT22;28755;51.478;5.702;2023-09-12T06:37:10;19.60;99.90
43151;DHT22;28755;51.478;5.702;2023-09-12T06:39:35;19.70;99.90
43151;DHT22;28755;51.478;5.702;2023-09-12T06:42:01;19.70;99.90
43151;DHT22;28755;51.478;5.702;2023-09-12T06:44:27;19.70;99.90
43151;DHT22;28755;51.478;5.702;2023-09-12T06:46:53;19.70;99.90
43151;DHT22;28755;51.478;5.702;2023-09-12T06:49:18;19.70;99.90
43151;DHT22;28755;51.478;5.702;2023-09-12T06:51:44;19.70;99.90
43151;DHT22;28755;51.478;5.702;2023-09-12T06:54:09;19.60;99.90
43151;DHT22;28755;51.478;5.702;2023-09-12T06:56:35;19.50;99.90
43151;DHT22;28755;51.478;5.702;2023-09-12T06:59:06;19.50;99.90
43151;DHT22;28755;51.478;5.702;2023-09-12T07:01:32;19.60;99.90
43151;DHT22;28755;51.478;5.702;2023-09-12T07:03:57;19.60;99.90
43151;DHT22;28755;51.478;5.702;2023-09-12T07:06:23;19.70;99.90
43151;DHT22;28755;51.478;5.702;2023-09-12T07:08:49;19.90;99.90
43151;DHT22;28755;51.478;5.702;2023-09-12T07:11:15;19.90;99.90
43151;DHT22;28755;51.478;5.702;2023-09-12T07:13:40;20.00;99.90
43151;DHT22;28755;51.478;5.702;2023-09-12T07:16:06;20.20;99.90
43151;DHT22;28755;51.478;5.702;2023-09-12T07:18:32;20.20;99.90
43151;DHT22;28755;51.478;5.702;2023-09-12T07:21:02;20.40;99.90
43151;DHT22;28755;51.478;5.702;2023-09-12T07:23:29;20.50;99.90
43151;DHT22;28755;51.478;5.702;2023-09-12T07:25:55;20.40;99.90
43151;DHT22;28755;51.478;5.702;2023-09-12T07:28:23;20.60;99.90
43151;DHT22;28755;51.478;5.702;2023-09-12T07:30:49;20.70;99.90
43151;DHT22;28755;51.478;5.702;2023-09-12T07:33:15;20.80;99.90
43151;DHT22;28755;51.478;5.702;2023-09-12T07:35:40;20.90;99.90
43151;DHT22;28755;51.478;5.702;2023-09-12T07:38:06;21.10;99.90
43151;DHT22;28755;51.478;5.702;2023-09-12T07:40:31;21.30;99.90
43151;DHT22;28755;51.478;5.702;2023-09-12T07:42:57;21.70;99.90
43151;DHT22;28755;51.478;5.702;2023-09-12T07:45:22;22.10;99.90
43151;DHT22;28755;51.478;5.702;2023-09-12T07:47:48;22.40;99.90
43151;DHT22;28755;51.478;5.702;2023-09-12T07:50:14;22.50;99.90
43151;DHT22;28755;51.478;5.702;2023-09-12T07:52:40;22.40;99.90
43151;DHT22;28755;51.478;5.702;2023-09-12T07:55:07;22.20;99.90
43151;DHT22;28755;51.478;5.702;2023-09-12T07:57:33;22.00;99.90
43151;DHT22;28755;51.478;5.702;2023-09-12T07:59:59;21.90;99.90
43151;DHT22;28755;51.478;5.702;2023-09-12T08:02:25;21.80;99.90
43151;DHT22;28755;51.478;5.702;2023-09-12T08:04:50;21.80;99.90
43151;DHT22;28755;51.478;5.702;2023-09-12T08:07:17;22.00;99.90
43151;DHT22;28755;51.478;5.702;2023-09-12T08:09:52;22.20;99.90
43151;DHT22;28755;51.478;5.702;2023-09-12T08:12:19;22.40;99.90
43151;DHT22;28755;51.478;5.702;2023-09-12T08:14:45;22.60;99.90
43151;DHT22;28755;51.478;5.702;2023-09-12T08:17:12;22.80;99.90
43151;DHT22;28755;51.478;5.702;2023-09-12T08:19:38;23.10;99.90
43151;DHT22;28755;51.478;5.702;2023-09-12T08:22:04;23.00;99.90
43151;DHT22;28755;51.478;5.702;2023-09-12T08:24:30;22.70;99.90
43151;DHT22;28755;51.478;5.702;2023-09-12T08:26:55;22.50;99.90
43151;DHT22;28755;51.478;5.702;2023-09-12T08:29:21;22.30;99.90
43151;DHT22;28755;51.478;5.702;2023-09-12T08:31:46;22.20;99.90
43151;DHT22;28755;51.478;5.702;2023-09-12T08:34:13;22.30;99.90
43151;DHT22;28755;51.478;5.702;2023-09-12T08:36:39;22.50;99.90
43151;DHT22;28755;51.478;5.702;2023-09-12T08:39:05;23.10;99.90
43151;DHT22;28755;51.478;5.702;2023-09-12T08:41:33;24.00;99.90
43151;DHT22;28755;51.478;5.702;2023-09-12T08:44:00;25.00;99.90
43151;DHT22;28755;51.478;5.702;2023-09-12T08:46:26;26.50;99.90
43151;DHT22;28755;51.478;5.702;2023-09-12T08:48:52;26.60;99.90
43151;DHT22;28755;51.478;5.702;2023-09-12T08:51:21;26.20;99.90
43151;DHT22;28755;51.478;5.702;2023-09-12T08:53:47;27.00;99.90
43151;DHT22;28755;51.478;5.702;2023-09-12T08:56:12;28.20;99.90
43151;DHT22;28755;51.478;5.702;2023-09-12T08:58:38;29.00;99.90
43151;DHT22;28755;51.478;5.702;2023-09-12T09:01:06;30.00;99.90
43151;DHT22;28755;51.478;5.702;2023-09-12T09:03:33;31.30;99.90
43151;DHT22;28755;51.478;5.702;2023-09-12T09:06:00;30.90;99.90
43151;DHT22;28755;51.478;5.702;2023-09-12T09:08:26;30.50;99.90
43151;DHT22;28755;51.478;5.702;2023-09-12T09:10:59;30.50;99.90
43151;DHT22;28755;51.478;5.702;2023-09-12T09:13:27;30.90;99.90
43151;DHT22;28755;51.478;5.702;2023-09-12T09:16:16;32.20;99.90
43151;DHT22;28755;51.478;5.702;2023-09-12T09:18:56;33.70;99.90
43151;DHT22;28755;51.478;5.702;2023-09-12T09:21:25;34.30;99.90
43151;DHT22;28755;51.478;5.702;2023-09-12T09:23:52;35.10;99.90
43151;DHT22;28755;51.478;5.702;2023-09-12T09:26:18;34.90;99.90
43151;DHT22;28755;51.478;5.702;2023-09-12T09:28:45;35.20;99.90
43151;DHT22;28755;51.478;5.702;2023-09-12T09:31:12;36.30;99.90
43151;DHT22;28755;51.478;5.702;2023-09-12T09:33:39;36.00;99.90
43151;DHT22;28755;51.478;5.702;2023-09-12T09:36:07;37.00;99.90
43151;DHT22;28755;51.478;5.702;2023-09-12T09:38:34;37.10;99.70
43151;DHT22;28755;51.478;5.702;2023-09-12T09:41:03;36.40;99.90
43151;DHT22;28755;51.478;5.702;2023-09-12T09:43:30;34.60;99.90
43151;DHT22;28755;51.478;5.702;2023-09-12T09:45:57;33.90;99.90
43151;DHT22;28755;51.478;5.702;2023-09-12T09:48:24;32.50;99.90
43151;DHT22;28755;51.478;5.702;2023-09-12T09:50:52;31.00;99.90
43151;DHT22;28755;51.478;5.702;2023-09-12T09:53:30;29.60;99.90
43151;DHT22;28755;51.478;5.702;2023-09-12T09:56:07;29.10;99.90
43151;DHT22;28755;51.478;5.702;2023-09-12T09:58:34;29.00;99.90
43151;DHT22;28755;51.478;5.702;2023-09-12T10:01:00;30.10;99.90
43151;DHT22;28755;51.478;5.702;2023-09-12T10:03:26;31.10;99.90
43151;DHT22;28755;51.478;5.702;2023-09-12T10:05:56;31.20;99.90
43151;DHT22;28755;51.478;5.702;2023-09-12T10:08:24;31.00;99.90
43151;DHT22;28755;51.478;5.702;2023-09-12T10:10:51;30.00;99.90
43151;DHT22;28755;51.478;5.702;2023-09-12T10:13:19;29.20;99.90
43151;DHT22;28755;51.478;5.702;2023-09-12T10:15:46;29.00;99.90
43151;DHT22;28755;51.478;5.702;2023-09-12T10:18:16;29.10;99.90
43151;DHT22;28755;51.478;5.702;2023-09-12T10:20:54;29.50;99.90
43151;DHT22;28755;51.478;5.702;2023-09-12T10:23:37;30.20;99.90
43151;DHT22;28755;51.478;5.702;2023-09-12T10:26:13;31.50;99.90
43151;DHT22;28755;51.478;5.702;2023-09-12T10:28:41;31.60;99.90
43151;DHT22;28755;51.478;5.702;2023-09-12T10:31:09;32.40;99.90
43151;DHT22;28755;51.478;5.702;2023-09-12T10:33:36;33.60;99.90
43151;DHT22;28755;51.478;5.702;2023-09-12T10:36:06;33.50;99.90
43151;DHT22;28755;51.478;5.702;2023-09-12T10:38:41;31.60;99.90
43151;DHT22;28755;51.478;5.702;2023-09-12T10:41:09;30.70;99.90
43151;DHT22;28755;51.478;5.702;2023-09-12T10:43:37;30.60;99.90
43151;DHT22;28755;51.478;5.702;2023-09-12T10:46:04;31.50;99.90
43151;DHT22;28755;51.478;5.702;2023-09-12T10:48:31;32.10;99.90
43151;DHT22;28755;51.478;5.702;2023-09-12T10:51:01;31.70;99.90
43151;DHT22;28755;51.478;5.702;2023-09-12T10:53:30;31.20;99.90
43151;DHT22;28755;51.478;5.702;2023-09-12T10:56:19;31.00;99.90
43151;DHT22;28755;51.478;5.702;2023-09-12T11:01:35;31.50;99.90
43151;DHT22;28755;51.478;5.702;2023-09-12T11:06:45;33.10;99.90
43151;DHT22;28755;51.478;5.702;2023-09-12T11:11:40;33.00;99.90
43151;DHT22;28755;51.478;5.702;2023-09-12T11:14:07;33.50;99.90
43151;DHT22;28755;51.478;5.702;2023-09-12T11:16:33;34.60;99.90
43151;DHT22;28755;51.478;5.702;2023-09-12T11:19:18;35.60;99.90
43151;DHT22;28755;51.478;5.702;2023-09-12T11:21:47;36.30;99.90
43151;DHT22;28755;51.478;5.702;2023-09-12T11:24:14;36.00;99.60
43151;DHT22;28755;51.478;5.702;2023-09-12T11:27:02;37.00;99.10
43151;DHT22;28755;51.478;5.702;2023-09-12T11:29:39;37.90;99.20
43151;DHT22;28755;51.478;5.702;2023-09-12T11:32:07;38.50;96.70
43151;DHT22;28755;51.478;5.702;2023-09-12T11:34:42;39.40;96.40
43151;DHT22;28755;51.478;5.702;2023-09-12T11:37:08;39.70;95.70
43151;DHT22;28755;51.478;5.702;2023-09-12T11:39:36;39.70;94.90
43151;DHT22;28755;51.478;5.702;2023-09-12T11:42:03;39.90;93.70
43151;DHT22;28755;51.478;5.702;2023-09-12T11:44:30;39.90;93.50
43151;DHT22;28755;51.478;5.702;2023-09-12T11:46:58;39.60;93.30
43151;DHT22;28755;51.478;5.702;2023-09-12T11:49:35;38.70;92.40
43151;DHT22;28755;51.478;5.702;2023-09-12T11:52:01;39.00;92.70
43151;DHT22;28755;51.478;5.702;2023-09-12T11:54:29;39.30;92.60
43151;DHT22;28755;51.478;5.702;2023-09-12T11:56:57;38.30;92.80
43151;DHT22;28755;51.478;5.702;2023-09-12T11:59:25;36.30;93.50
43151;DHT22;28755;51.478;5.702;2023-09-12T12:01:52;34.60;94.10
43151;DHT22;28755;51.478;5.702;2023-09-12T12:04:20;34.00;96.10
43151;DHT22;28755;51.478;5.702;2023-09-12T12:06:47;33.90;96.00
43151;DHT22;28755;51.478;5.702;2023-09-12T12:09:13;32.70;97.70
43151;DHT22;28755;51.478;5.702;2023-09-12T12:11:40;31.60;99.90
43151;DHT22;28755;51.478;5.702;2023-09-12T12:14:11;30.80;99.90
43151;DHT22;28755;51.478;5.702;2023-09-12T12:16:37;29.70;99.90
43151;DHT22;28755;51.478;5.702;2023-09-12T12:19:03;29.60;99.90
43151;DHT22;28755;51.478;5.702;2023-09-12T12:21:28;29.30;99.90
43151;DHT22;28755;51.478;5.702;2023-09-12T12:23:58;29.20;99.90
43151;DHT22;28755;51.478;5.702;2023-09-12T12:26:25;28.80;99.90
43151;DHT22;28755;51.478;5.702;2023-09-12T12:28:51;28.70;99.90
43151;DHT22;28755;51.478;5.702;2023-09-12T12:31:17;28.40;99.90
43151;DHT22;28755;51.478;5.702;2023-09-12T12:33:56;28.10;99.90
43151;DHT22;28755;51.478;5.702;2023-09-12T12:36:22;28.10;99.90
43151;DHT22;28755;51.478;5.702;2023-09-12T12:38:49;28.50;99.90
43151;DHT22;28755;51.478;5.702;2023-09-12T12:41:16;28.80;99.90
43151;DHT22;28755;51.478;5.702;2023-09-12T12:43:42;29.00;99.90
43151;DHT22;28755;51.478;5.702;2023-09-12T12:46:12;28.90;99.90
43151;DHT22;28755;51.478;5.702;2023-09-12T12:48:38;28.90;99.90
43151;DHT22;28755;51.478;5.702;2023-09-12T12:51:23;28.70;99.90
43151;DHT22;28755;51.478;5.702;2023-09-12T12:53:53;28.60;99.90
43151;DHT22;28755;51.478;5.702;2023-09-12T12:56:26;28.30;99.90
43151;DHT22;28755;51.478;5.702;2023-09-12T12:58:55;28.10;99.90
43151;DHT22;28755;51.478;5.702;2023-09-12T13:01:21;27.90;99.90
43151;DHT22;28755;51.478;5.702;2023-09-12T13:03:46;27.50;99.90
43151;DHT22;28755;51.478;5.702;2023-09-12T13:06:12;27.40;99.90
43151;DHT22;28755;51.478;5.702;2023-09-12T13:08:43;27.40;99.90
43151;DHT22;28755;51.478;5.702;2023-09-12T13:11:10;27.30;99.90
43151;DHT22;28755;51.478;5.702;2023-09-12T13:13:40;27.20;99.90
43151;DHT22;28755;51.478;5.702;2023-09-12T13:16:06;27.00;99.90
43151;DHT22;28755;51.478;5.702;2023-09-12T13:18:35;26.90;99.90
43151;DHT22;28755;51.478;5.702;2023-09-12T13:21:01;26.90;99.90
43151;DHT22;28755;51.478;5.702;2023-09-12T13:23:27;27.00;99.90
43151;DHT22;28755;51.478;5.702;2023-09-12T13:25:53;26.90;99.90
43151;DHT22;28755;51.478;5.702;2023-09-12T13:28:19;27.30;99.90
43151;DHT22;28755;51.478;5.702;2023-09-12T13:30:45;27.70;99.90
43151;DHT22;28755;51.478;5.702;2023-09-12T13:33:11;28.00;99.90
43151;DHT22;28755;51.478;5.702;2023-09-12T13:35:37;28.10;99.90
43151;DHT22;28755;51.478;5.702;2023-09-12T13:38:03;28.30;99.90
43151;DHT22;28755;51.478;5.702;2023-09-12T13:40:36;28.20;99.90
43151;DHT22;28755;51.478;5.702;2023-09-12T13:43:04;28.50;99.90
43151;DHT22;28755;51.478;5.702;2023-09-12T13:45:29;28.50;99.90
43151;DHT22;28755;51.478;5.702;2023-09-12T13:47:55;28.40;99.90
43151;DHT22;28755;51.478;5.702;2023-09-12T13:50:20;28.10;99.90
43151;DHT22;28755;51.478;5.702;2023-09-12T13:52:46;27.70;99.90
43151;DHT22;28755;51.478;5.702;2023-09-12T13:55:11;27.30;99.90
43151;DHT22;28755;51.478;5.702;2023-09-12T13:57:39;27.10;99.90
43151;DHT22;28755;51.478;5.702;2023-09-12T14:00:06;27.10;99.90
43151;DHT22;28755;51.478;5.702;2023-09-12T14:02:31;27.20;99.90
43151;DHT22;28755;51.478;5.702;2023-09-12T14:04:57;27.30;99.90
43151;DHT22;28755;51.478;5.702;2023-09-12T14:07:23;27.20;99.90
43151;DHT22;28755;51.478;5.702;2023-09-12T14:09:49;27.20;99.90
43151;DHT22;28755;51.478;5.702;2023-09-12T14:12:15;27.30;99.90
43151;DHT22;28755;51.478;5.702;2023-09-12T14:14:41;27.40;99.90
43151;DHT22;28755;51.478;5.702;2023-09-12T14:17:07;27.50;99.90
43151;DHT22;28755;51.478;5.702;2023-09-12T14:19:32;27.70;99.90
43151;DHT22;28755;51.478;5.702;2023-09-12T14:21:59;27.80;99.90
43151;DHT22;28755;51.478;5.702;2023-09-12T14:24:25;27.90;99.90
43151;DHT22;28755;51.478;5.702;2023-09-12T14:26:50;28.00;99.90
43151;DHT22;28755;51.478;5.702;2023-09-12T14:29:16;27.70;99.90
43151;DHT22;28755;51.478;5.702;2023-09-12T14:31:41;27.50;99.90
43151;DHT22;28755;51.478;5.702;2023-09-12T14:34:15;27.20;99.90
43151;DHT22;28755;51.478;5.702;2023-09-12T14:36:41;27.10;99.90
43151;DHT22;28755;51.478;5.702;2023-09-12T14:39:06;27.10;99.90
43151;DHT22;28755;51.478;5.702;2023-09-12T14:41:32;27.20;99.90
43151;DHT22;28755;51.478;5.702;2023-09-12T14:43:58;27.10;99.90
43151;DHT22;28755;51.478;5.702;2023-09-12T14:46:23;27.10;99.90
43151;DHT22;28755;51.478;5.702;2023-09-12T14:48:50;27.10;99.90
43151;DHT22;28755;51.478;5.702;2023-09-12T14:51:16;27.00;99.90
43151;DHT22;28755;51.478;5.702;2023-09-12T14:53:41;27.20;99.90
43151;DHT22;28755;51.478;5.702;2023-09-12T14:56:12;27.20;99.90
43151;DHT22;28755;51.478;5.702;2023-09-12T14:58:38;27.30;99.90
43151;DHT22;28755;51.478;5.702;2023-09-12T15:01:04;27.50;99.90
43151;DHT22;28755;51.478;5.702;2023-09-12T15:03:30;27.50;99.90
43151;DHT22;28755;51.478;5.702;2023-09-12T15:05:56;27.50;99.90
43151;DHT22;28755;51.478;5.702;2023-09-12T15:08:21;27.40;99.90
43151;DHT22;28755;51.478;5.702;2023-09-12T15:10:47;27.30;99.90
43151;DHT22;28755;51.478;5.702;2023-09-12T15:13:12;27.30;99.90
43151;DHT22;28755;51.478;5.702;2023-09-12T15:15:39;27.30;99.90
43151;DHT22;28755;51.478;5.702;2023-09-12T15:18:05;27.40;99.90
43151;DHT22;28755;51.478;5.702;2023-09-12T15:20:31;27.40;99.90
43151;DHT22;28755;51.478;5.702;2023-09-12T15:22:57;27.20;99.90
43151;DHT22;28755;51.478;5.702;2023-09-12T15:25:22;27.00;99.90
43151;DHT22;28755;51.478;5.702;2023-09-12T15:27:48;26.70;99.90
43151;DHT22;28755;51.478;5.702;2023-09-12T15:30:14;26.50;99.90
43151;DHT22;28755;51.478;5.702;2023-09-12T15:32:39;26.40;99.90
43151;DHT22;28755;51.478;5.702;2023-09-12T15:35:05;26.30;99.90
43151;DHT22;28755;51.478;5.702;2023-09-12T15:37:31;26.20;99.90
43151;DHT22;28755;51.478;5.702;2023-09-12T15:39:56;26.20;99.90